Time;durP1;ratioP1;P1;durP2;ratioP2;P2;SDS_P1;SDS_P2;PMS_P1;PMS_P2;Temp;Humidity;BMP_temperature;BMP_pressure;BME280_temperature;BME280_humidity;BME280_pressure;Samples;Min_cycle;Max_cycle;Signal;HPM_P1;HPM_P2
2021/05/02 00:02:12;;;;;;;;;;;;;;;;;;7335935;40;1249;-13
2021/05/02 00:07:32;;;;;;;;;;;;;;;;;;7337038;40;1024;-12
2021/05/02 00:12:52;;;;;;;;;;;;;;;;;;7316780;40;1879;-13
2021/05/02 00:18:14;;;;;;;;;;;;;;;;;;7316603;40;881;-13
2021/05/02 00:23:35;;;;;;;;;;;;;;;;;;7316562;40;1113;-12
2021/05/02 00:28:56;;;;;;;;;;;;;;;;;;7319394;40;943;-13
2021/05/02 00:34:17;;;;;;;;;;;;;;;;;;7325644;40;2012;-13
2021/05/02 00:39:37;;;;;;;;;;;;;;;;;;7338899;40;1235;-13
2021/05/02 00:44:59;;;;;;;;;;;;;;;;;;7339879;40;1022;-13
2021/05/02 00:50:22;;;;;;;;;;;;;;;;;;7339837;40;1944;-13
2021/05/02 00:55:49;;;;;;;;;;;;;;;;;;7339663;40;1010;-13
2021/05/02 01:01:14;;;;;;;;;;;;;;;;;;7339314;40;973;-12
2021/05/02 01:06:35;;;;;;;;;;;;;;;;;;7339033;40;1235;-13
2021/05/02 01:11:57;;;;;;;;;;;;;;;;;;7339223;40;1875;-12
2021/05/02 01:17:18;;;;;;;;;;;;;;;;;;7339329;40;1056;-12
2021/05/02 01:22:41;;;;;;;;;;;;;;;;;;7339369;40;961;-14
2021/05/02 01:28:02;;;;;;;;;;;;;;;;;;7339269;40;1020;-12
2021/05/02 01:33:22;;;;;;;;;;;;;;;;;;7339047;40;1972;-12
2021/05/02 01:38:44;;;;;;;;;;;;;;;;;;7338322;40;994;-13
2021/05/02 01:44:04;;;;;;;;;;;;;;;;;;7338711;40;912;-13
2021/05/02 01:49:25;;;;;;;;;;;;;;;;;;7339059;40;1091;-13
2021/05/02 01:54:45;;;;;;;;;;;;;;;;;;7338703;40;1870;-12
2021/05/02 02:00:08;;;;;;;;;;;;;;;;;;7338867;40;1008;-13
2021/05/02 02:05:29;;;;;;;;;;;;;;;;;;7338870;40;1097;-12
2021/05/02 02:10:53;;;;;;;;;;;;;;;;;;7338496;40;1866;-12
2021/05/02 02:16:13;;;;;;;;;;;;;;;;;;7338340;40;1016;-12
2021/05/02 02:21:33;;;;;;;;;;;;;;;;;;7338348;40;1035;-13
2021/05/02 02:26:57;;;;;;;;;;;;;;;;;;7338120;40;1033;-13
2021/05/02 02:32:18;;;;;;;;;;;;;;;;;;7338149;40;1945;-13
2021/05/02 02:37:42;;;;;;;;;;;;;;;;;;7338180;40;1003;-13
2021/05/02 02:43:03;;;;;;;;;;;;;;;;;;7338284;40;909;-12
2021/05/02 02:48:26;;;;;;;;;;;;;;;;;;7343010;40;1075;-13
2021/05/02 02:53:48;;;;;;;;;;;;;;;;;;7338221;40;1937;-13
2021/05/02 02:59:08;;;;;;;;;;;;;;;;;;7337953;40;1012;-13
2021/05/02 03:04:30;;;;;;;;;;;;;;;;;;7337905;40;982;-13
2021/05/02 03:09:51;;;;;;;;;;;;;;;;;;7338283;40;1079;-13
2021/05/02 03:15:12;;;;;;;;;;;;;;;;;;7338232;40;1333;-13
2021/05/02 03:20:33;;;;;;;;;;;;;;;;;;7337958;40;1006;-13
2021/05/02 03:25:56;;;;;;;;;;;;;;;;;;7337873;40;1003;-12
2021/05/02 03:31:17;;;;;;;;;;;;;;;;;;7337736;40;2006;-12
2021/05/02 03:36:50;;;;;;;;;;;;;;;;;;7337660;40;1083;-12
2021/05/02 03:42:10;;;;;;;;;;;;;;;;;;7337409;40;1626;-13
2021/05/02 03:47:31;;;;;;;;;;;;;;;;;;7329120;40;1083;-13
2021/05/02 03:52:52;;;;;;;;;;;;;;;;;;7337598;40;1937;-14
2021/05/02 03:58:14;;;;;;;;;;;;;;;;;;7337382;40;1078;-13
2021/05/02 04:03:34;;;;;;;;;;;;;;;;;;7337087;40;1019;-13
2021/05/02 04:08:55;;;;;;;;;;;;;;;;;;7337171;40;1174;-14
2021/05/02 04:14:16;;;;;;;;;;;;;;;;;;7336980;40;1890;-14
2021/05/02 04:19:37;;;;;;;;;;;;;;;;;;7336942;40;1165;-12
2021/05/02 04:24:58;;;;;;;;;;;;;;;;;;7336983;40;1013;-12
2021/05/02 04:30:18;;;;;;;;;;;;;;;;;;7336981;40;1890;-12
2021/05/02 04:35:39;;;;;;;;;;;;;;;;;;7336002;40;1045;-12
2021/05/02 04:40:59;;;;;;;;;;;;;;;;;;7337018;40;1128;-11
2021/05/02 04:46:19;;;;;;;;;;;;;;;;;;7342519;40;964;-12
2021/05/02 04:51:40;;;;;;;;;;;;;;;;;;7334624;40;2051;-13
2021/05/02 04:57:00;;;;;;;;;;;;;;;;;;7334990;40;1005;-13
2021/05/02 05:02:21;;;;;;;;;;;;;;;;;;7336511;40;981;-13
2021/05/02 05:07:41;;;;;;;;;;;;;;;;;;7334378;40;1335;-13
2021/05/02 05:13:02;;;;;;;;;;;;;;;;;;7346152;40;1879;-14
2021/05/02 05:18:23;;;;;;;;;;;;;;;;;;7331658;40;1071;-14
2021/05/02 05:23:44;;;;;;;;;;;;;;;;;;7337629;40;1063;-14
2021/05/02 05:29:04;;;;;;;;;;;;;;;;;;7330313;40;1076;-14
2021/05/02 05:34:26;;;;;;;;;;;;;;;;;;7319003;40;1882;-14
2021/05/02 05:39:48;;;;;;;;;;;;;;;;;;7317274;40;987;-14
2021/05/02 05:45:09;;;;;;;;;;;;;;;;;;7318802;40;1011;-14
2021/05/02 05:50:30;;;;;;;;;;;;;;;;;;7324041;40;1890;-14
2021/05/02 05:55:56;;;;;;;;;;;;;;;;;;7323348;40;1030;-14
2021/05/02 06:01:16;;;;;;;;;;;;;;;;;;7338789;40;1022;-13
2021/05/02 06:06:37;;;;;;;;;;;;;;;;;;7336247;40;986;-12
2021/05/02 06:11:57;;;;;;;;;;;;;;;;;;7335929;40;1949;-13
2021/05/02 06:17:32;;;;;;;;;;;;;;;;;;7335310;40;1022;-14
2021/05/02 06:22:53;;;;;;;;;;;;;;;;;;7087927;40;9999752;-14
2021/05/02 06:28:14;;;;;;;;;;;;;;;;;;7328741;40;1151;-12
2021/05/02 06:33:38;;;;;;;;;;;;;;;;;;7335886;40;1886;-13
2021/05/02 06:38:59;;;;;;;;;;;;;;;;;;7333801;40;1220;-14
2021/05/02 06:44:19;;;;;;;;;;;;;;;;;;7335236;40;1117;-13
2021/05/02 06:49:39;;;;;;;;;;;;;;;;;;7322445;40;1273;-13
2021/05/02 06:55:00;;;;;;;;;;;;;;;;;;7334002;40;1947;-14
2021/05/02 07:00:20;;;;;;;;;;;;;;;;;;7328315;40;1094;-14
2021/05/02 07:05:41;;;;;;;;;;;;;;;;;;7325069;40;1009;-13
2021/05/02 07:11:02;;;;;;;;;;;;;;;;;;7323113;40;1933;-14
2021/05/02 07:16:22;;;;;;;;;;;;;;;;;;7318925;40;1035;-14
2021/05/02 07:21:43;;;;;;;;;;;;;;;;;;7331272;40;2384;-14
2021/05/02 07:27:04;;;;;;;;;;;;;;;;;;7334612;40;997;-14
2021/05/02 07:32:24;;;;;;;;;;;;;;;;;;7334634;40;1936;-14
2021/05/02 07:37:45;;;;;;;;;;;;;;;;;;7334356;40;1054;-14
2021/05/02 07:43:05;;;;;;;;;;;;;;;;;;7334678;40;1159;-12
2021/05/02 07:48:25;;;;;;;;;;;;;;;;;;7329978;40;1249;-13
2021/05/02 07:53:47;;;;;;;;;;;;;;;;;;7336547;40;1958;-13
2021/05/02 07:59:08;;;;;;;;;;;;;;;;;;7334137;40;1050;-13
2021/05/02 08:04:28;;;;;;;;;;;;;;;;;;7330060;40;1046;-13
2021/05/02 08:09:48;;;;;;;;;;;;;;;;;;7324287;40;1295;-13
2021/05/02 08:15:09;;;;;;;;;;;;;;;;;;7322570;40;1884;-13
2021/05/02 08:20:30;;;;;;;;;;;;;;;;;;7329220;40;2251;-12
2021/05/02 08:25:50;;;;;;;;;;;;;;;;;;7324537;40;2967;-13
2021/05/02 08:31:21;;;;;;;;;;;;;;;;;;7323290;40;1975;-13
2021/05/02 08:36:42;;;;;;;;;;;;;;;;;;7321147;40;1333;-13
2021/05/02 08:42:02;;;;;;;;;;;;;;;;;;7323808;40;1125;-13
2021/05/02 08:47:23;;;;;;;;;;;;;;;;;;7324681;40;1097;-13
2021/05/02 08:52:44;;;;;;;;;;;;;;;;;;7341568;40;1955;-13
2021/05/02 08:58:05;;;;;;;;;;;;;;;;;;7336565;40;1016;-13
2021/05/02 09:03:45;;;;;;;;;;;;;;;;;;7328053;40;1023;-13
2021/05/02 09:09:07;;;;;;;;;;;;;;;;;;7336795;40;995;-13
2021/05/02 09:14:31;;;;;;;;;;;;;;;;;;7336437;40;1878;-13
2021/05/02 09:19:52;;;;;;;;;;;;;;;;;;7336515;40;1028;-13
2021/05/02 09:25:13;;;;;;;;;;;;;;;;;;7314498;40;1105;-13
2021/05/02 09:30:34;;;;;;;;;;;;;;;;;;7315789;40;1064;-13
2021/05/02 09:35:54;;;;;;;;;;;;;;;;;;7315896;40;911;-13
2021/05/02 09:41:15;;;;;;;;;;;;;;;;;;7316029;40;1160;-14
2021/05/02 09:46:40;;;;;;;;;;;;;;;;;;7325820;40;1349;-13
2021/05/02 09:52:01;;;;;;;;;;;;;;;;;;7315128;40;1929;-12
2021/05/02 09:57:35;;;;;;;;;;;;;;;;;;7321644;40;1105;-12
2021/05/02 10:02:57;;;;;;;;;;;;;;;;;;7335927;40;1230;-12
2021/05/02 10:08:19;;;;;;;;;;;;;;;;;;7335962;40;1281;-14
2021/05/02 10:13:40;;;;;;;;;;;;;;;;;;7336575;40;1879;-13
2021/05/02 10:19:01;;;;;;;;;;;;;;;;;;7333699;40;1119;-14
2021/05/02 10:24:21;;;;;;;;;;;;;;;;;;7337607;40;2500;-14
2021/05/02 10:29:47;;;;;;;;;;;;;;;;;;7338308;40;956;-13
2021/05/02 10:35:11;;;;;;;;;;;;;;;;;;7322502;40;1943;-12
2021/05/02 10:40:32;;;;;;;;;;;;;;;;;;7331377;40;1030;-14
2021/05/02 10:46:06;;;;;;;;;;;;;;;;;;7337945;40;983;-15
2021/05/02 10:51:29;;;;;;;;;;;;;;;;;;7342923;40;1935;-14
2021/05/02 10:56:51;;;;;;;;;;;;;;;;;;7337599;40;1472;-14
2021/05/02 11:02:30;;;;;;;;;;;;;;;;;;7352385;40;963;-14
2021/05/02 11:07:55;;;;;;;;;;;;;;;;;;7358268;40;1210;-14
2021/05/02 11:13:25;;;;;;;;;;;;;;;;;;7357404;40;1877;-14
2021/05/02 11:18:50;;;;;;;;;;;;;;;;;;7358245;40;1084;-14
2021/05/02 11:24:12;;;;;;;;;;;;;;;;;;7357814;40;1051;-12
2021/05/02 11:30:21;;;;;;;;;;;;;;;;;;7357954;40;951;-13
2021/05/02 11:35:53;;;;;;;;;;;;;;;;;;7338457;40;1882;-14
2021/05/02 11:41:13;;;;;;;;;;;;;;;;;;7333688;40;1137;-13
2021/05/02 11:46:34;;;;;;;;;;;;;;;;;;7326988;40;1183;-13
2021/05/02 11:51:55;;;;;;;;;;;;;;;;;;7276137;40;1942;-14
2021/05/02 11:57:15;;;;;;;;;;;;;;;;;;7279642;40;1050;-14
2021/05/02 12:02:42;;;;;;;;;;;;;;;;;;7308537;40;1036;-13
2021/05/02 12:08:10;;;;;;;;;;;;;;;;;;7296418;40;968;-14
2021/05/02 12:13:30;;;;;;;;;;;;;;;;;;7295978;40;1880;-13
2021/05/02 12:18:50;;;;;;;;;;;;;;;;;;7296333;40;1013;-14
2021/05/02 12:24:15;;;;;;;;;;;;;;;;;;7298400;40;982;-14
2021/05/02 12:29:36;;;;;;;;;;;;;;;;;;7305277;40;980;-14
2021/05/02 12:34:56;;;;;;;;;;;;;;;;;;7298941;40;1949;-14
2021/05/02 12:40:17;;;;;;;;;;;;;;;;;;7291886;40;1101;-14
2021/05/02 12:45:41;;;;;;;;;;;;;;;;;;7279237;40;919;-14
2021/05/02 12:51:02;;;;;;;;;;;;;;;;;;7314518;40;1295;-13
2021/05/02 12:56:23;;;;;;;;;;;;;;;;;;7325218;40;1099;-14
2021/05/02 13:01:58;;;;;;;;;;;;;;;;;;7318965;40;1035;-14
2021/05/02 13:07:29;;;;;;;;;;;;;;;;;;7319804;40;1128;-14
2021/05/02 13:12:54;;;;;;;;;;;;;;;;;;7331758;40;2165;-15
2021/05/02 13:18:21;;;;;;;;;;;;;;;;;;7318679;40;1096;-13
2021/05/02 13:23:41;;;;;;;;;;;;;;;;;;7326119;40;1373;-15
2021/05/02 13:29:04;;;;;;;;;;;;;;;;;;7328649;40;1094;-16
2021/05/02 13:34:29;;;;;;;;;;;;;;;;;;7326959;40;1878;-15
2021/05/02 13:39:49;;;;;;;;;;;;;;;;;;7334227;40;1114;-14
2021/05/02 13:45:10;;;;;;;;;;;;;;;;;;7339139;40;1035;-14
2021/05/02 13:50:31;;;;;;;;;;;;;;;;;;7344649;40;1106;-16
2021/05/02 13:55:53;;;;;;;;;;;;;;;;;;7338508;40;1942;-14
2021/05/02 14:01:14;;;;;;;;;;;;;;;;;;7338488;40;1097;-14
2021/05/02 14:06:35;;;;;;;;;;;;;;;;;;7338569;40;1006;-15
2021/05/02 14:11:55;;;;;;;;;;;;;;;;;;7338505;40;1878;-14
2021/05/02 14:17:15;;;;;;;;;;;;;;;;;;7337829;40;1910;-14
2021/05/02 14:22:36;;;;;;;;;;;;;;;;;;7338369;40;955;-14
2021/05/02 14:27:56;;;;;;;;;;;;;;;;;;7338383;40;1072;-14
2021/05/02 14:33:16;;;;;;;;;;;;;;;;;;7338316;40;1934;-14
2021/05/02 14:38:37;;;;;;;;;;;;;;;;;;7343901;40;1001;-14
2021/05/02 14:43:58;;;;;;;;;;;;;;;;;;7338034;40;977;-14
2021/05/02 14:49:18;;;;;;;;;;;;;;;;;;7337646;40;1058;-14
2021/05/02 14:54:47;;;;;;;;;;;;;;;;;;7336205;40;1882;-14
2021/05/02 15:00:09;;;;;;;;;;;;;;;;;;7090579;40;9999762;-13
2021/05/02 15:05:29;;;;;;;;;;;;;;;;;;7334845;40;1218;-14
2021/05/02 15:10:50;;;;;;;;;;;;;;;;;;7340573;40;1185;-15
2021/05/02 15:16:10;;;;;;;;;;;;;;;;;;7334721;40;1878;-13
2021/05/02 15:21:31;;;;;;;;;;;;;;;;;;7335065;40;893;-14
2021/05/02 15:26:52;;;;;;;;;;;;;;;;;;7334662;40;1103;-17
2021/05/02 15:32:16;;;;;;;;;;;;;;;;;;7334472;40;1886;-15
2021/05/02 15:37:38;;;;;;;;;;;;;;;;;;7332850;40;1112;-14
2021/05/02 15:42:59;;;;;;;;;;;;;;;;;;7332857;40;1182;-17
2021/05/02 15:48:19;;;;;;;;;;;;;;;;;;7334633;40;1104;-15
2021/05/02 15:53:39;;;;;;;;;;;;;;;;;;7333395;40;1902;-14
2021/05/02 15:59:00;;;;;;;;;;;;;;;;;;7333533;40;2637;-15
2021/05/02 16:04:20;;;;;;;;;;;;;;;;;;7334331;40;1792;-15
2021/05/02 16:09:42;;;;;;;;;;;;;;;;;;7333981;40;1014;-15
2021/05/02 16:15:03;;;;;;;;;;;;;;;;;;7333521;40;1871;-14
2021/05/02 16:20:23;;;;;;;;;;;;;;;;;;7333756;40;1053;-14
2021/05/02 16:25:44;;;;;;;;;;;;;;;;;;7333843;40;1100;-14
2021/05/02 16:31:04;;;;;;;;;;;;;;;;;;7333436;40;1027;-14
2021/05/02 16:36:25;;;;;;;;;;;;;;;;;;7333469;40;1912;-14
2021/05/02 16:41:46;;;;;;;;;;;;;;;;;;7333379;40;1119;-14
2021/05/02 16:47:07;;;;;;;;;;;;;;;;;;7333291;40;1114;-14
2021/05/02 16:52:29;;;;;;;;;;;;;;;;;;7332372;40;2323;-13
2021/05/02 16:57:49;;;;;;;;;;;;;;;;;;7332899;40;1053;-14
2021/05/02 17:03:10;;;;;;;;;;;;;;;;;;7333167;40;3629;-13
2021/05/02 17:08:32;;;;;;;;;;;;;;;;;;7321134;40;1061;-13
2021/05/02 17:13:52;;;;;;;;;;;;;;;;;;7315902;40;1886;-14
2021/05/02 17:19:13;;;;;;;;;;;;;;;;;;7315546;40;1270;-13
2021/05/02 17:24:33;;;;;;;;;;;;;;;;;;7321898;40;939;-14
2021/05/02 17:29:54;;;;;;;;;;;;;;;;;;7315522;40;1128;-13
2021/05/02 17:35:14;;;;;;;;;;;;;;;;;;7325036;40;1886;-13
2021/05/02 17:40:35;;;;;;;;;;;;;;;;;;7356388;40;970;-14
2021/05/02 17:45:55;;;;;;;;;;;;;;;;;;7355854;40;1059;-14
2021/05/02 17:51:16;;;;;;;;;;;;;;;;;;7349659;40;1333;-13
2021/05/02 17:56:36;;;;;;;;;;;;;;;;;;7335797;40;2516;-14
2021/05/02 18:01:57;;;;;;;;;;;;;;;;;;7335427;40;1770;-14
2021/05/02 18:07:17;;;;;;;;;;;;;;;;;;7348610;40;933;-14
2021/05/02 18:12:38;;;;;;;;;;;;;;;;;;7355312;40;1878;-14
2021/05/02 18:17:58;;;;;;;;;;;;;;;;;;7355186;40;886;-12
2021/05/02 18:23:19;;;;;;;;;;;;;;;;;;7345549;40;898;-13
2021/05/02 18:28:39;;;;;;;;;;;;;;;;;;7335497;40;1014;-13
2021/05/02 18:33:59;;;;;;;;;;;;;;;;;;7335090;40;1937;-14
2021/05/02 18:39:20;;;;;;;;;;;;;;;;;;7314601;40;1147;-13
2021/05/02 18:44:40;;;;;;;;;;;;;;;;;;7330593;40;1355;-14
2021/05/02 18:50:02;;;;;;;;;;;;;;;;;;7335361;40;1290;-13
2021/05/02 18:55:22;;;;;;;;;;;;;;;;;;7334718;40;2645;-13
2021/05/02 19:00:43;;;;;;;;;;;;;;;;;;7335064;40;1691;-14
2021/05/02 19:06:03;;;;;;;;;;;;;;;;;;7344944;40;1211;-13
2021/05/02 19:11:24;;;;;;;;;;;;;;;;;;7357759;40;1266;-14
2021/05/02 19:16:45;;;;;;;;;;;;;;;;;;7358126;40;1933;-14
2021/05/02 19:22:06;;;;;;;;;;;;;;;;;;7357912;40;999;-13
2021/05/02 19:27:26;;;;;;;;;;;;;;;;;;7357873;40;969;-14
2021/05/02 19:32:47;;;;;;;;;;;;;;;;;;7357305;40;1923;-14
2021/05/02 19:38:21;;;;;;;;;;;;;;;;;;7340429;40;979;-14
2021/05/02 19:43:41;;;;;;;;;;;;;;;;;;7316944;40;1278;-15
2021/05/02 19:49:02;;;;;;;;;;;;;;;;;;7317158;40;1455;-14
2021/05/02 19:54:22;;;;;;;;;;;;;;;;;;7316885;40;1893;-14
2021/05/02 19:59:44;;;;;;;;;;;;;;;;;;7319704;40;1125;-13
2021/05/02 20:05:08;;;;;;;;;;;;;;;;;;7341126;40;914;-12
2021/05/02 20:10:31;;;;;;;;;;;;;;;;;;6722246;40;10000875;-15
2021/05/02 20:15:51;;;;;;;;;;;;;;;;;;7377788;40;1936;-16
2021/05/02 20:21:12;;;;;;;;;;;;;;;;;;7377473;40;1111;-15
2021/05/02 20:26:33;;;;;;;;;;;;;;;;;;7377777;40;1378;-15
2021/05/02 20:31:54;;;;;;;;;;;;;;;;;;7377257;40;2076;-16
2021/05/02 20:37:25;;;;;;;;;;;;;;;;;;7377189;40;1655;-16
2021/05/02 20:42:46;;;;;;;;;;;;;;;;;;7378236;40;1004;-16
2021/05/02 20:48:06;;;;;;;;;;;;;;;;;;7381046;40;1693;-18
2021/05/02 20:53:26;;;;;;;;;;;;;;;;;;7401548;40;1937;-16
2021/05/02 20:58:50;;;;;;;;;;;;;;;;;;7406817;40;1036;-15
2021/05/02 21:04:11;;;;;;;;;;;;;;;;;;7401125;40;1079;-16
2021/05/02 21:09:31;;;;;;;;;;;;;;;;;;7391814;40;992;-27
2021/05/02 21:14:52;;;;;;;;;;;;;;;;;;7379194;40;1919;-22
2021/05/02 21:20:13;;;;;;;;;;;;;;;;;;7378503;40;1043;-21
2021/05/02 21:25:33;;;;;;;;;;;;;;;;;;7379019;40;1265;-20
2021/05/02 21:30:54;;;;;;;;;;;;;;;;;;7380304;40;976;-22
2021/05/02 21:36:14;;;;;;;;;;;;;;;;;;7379979;40;1913;-21
2021/05/02 21:41:35;;;;;;;;;;;;;;;;;;7379906;40;1094;-23
2021/05/02 21:46:55;;;;;;;;;;;;;;;;;;7379958;40;1096;-24
2021/05/02 21:52:16;;;;;;;;;;;;;;;;;;7379877;40;1062;-23
2021/05/02 21:57:37;;;;;;;;;;;;;;;;;;7377802;40;1374;-23
2021/05/02 22:02:57;;;;;;;;;;;;;;;;;;7379613;40;1044;-24
2021/05/02 22:08:18;;;;;;;;;;;;;;;;;;7379489;40;1142;-22
2021/05/02 22:13:39;;;;;;;;;;;;;;;;;;7379576;40;1928;-25
2021/05/02 22:18:59;;;;;;;;;;;;;;;;;;7379637;40;933;-24
2021/05/02 22:24:20;;;;;;;;;;;;;;;;;;7379431;40;999;-20
2021/05/02 22:29:41;;;;;;;;;;;;;;;;;;7392285;40;1097;-21
2021/05/02 22:35:02;;;;;;;;;;;;;;;;;;7379386;40;1935;-22
2021/05/02 22:40:22;;;;;;;;;;;;;;;;;;7379427;40;1080;-21
2021/05/02 22:45:43;;;;;;;;;;;;;;;;;;7379129;40;953;-22
2021/05/02 22:51:04;;;;;;;;;;;;;;;;;;7379232;40;1102;-23
2021/05/02 22:56:24;;;;;;;;;;;;;;;;;;7378666;40;1929;-23
2021/05/02 23:01:44;;;;;;;;;;;;;;;;;;7378864;40;1207;-21
2021/05/02 23:07:05;;;;;;;;;;;;;;;;;;7377863;40;1847;-22
2021/05/02 23:12:26;;;;;;;;;;;;;;;;;;7378826;40;1179;-21
2021/05/02 23:17:46;;;;;;;;;;;;;;;;;;7378813;40;1011;-22
2021/05/02 23:23:06;;;;;;;;;;;;;;;;;;7378470;40;1134;-22
2021/05/02 23:28:27;;;;;;;;;;;;;;;;;;7378653;40;888;-20
2021/05/02 23:33:47;;;;;;;;;;;;;;;;;;7378472;40;1893;-22
2021/05/02 23:39:10;;;;;;;;;;;;;;;;;;7378350;40;1142;-20
2021/05/02 23:44:30;;;;;;;;;;;;;;;;;;7378435;40;1007;-22
2021/05/02 23:49:50;;;;;;;;;;;;;;;;;;7378234;40;1159;-20
2021/05/02 23:55:12;;;;;;;;;;;;;;;;;;7378284;40;1917;-21
